Etusivu
METAR-TAF:

METAR-TAF

Lentoasemat :

Vilankulo, Mosambik

Leveyspiiri: 22-00S, Pituuspiiri: 035-19E, korkeus merenpinnasta: 20 m

Tämänhetkinen sää

Tämä raportti tehtiin 5 tuntia ja 3 minuuttia sitten, kello 15.00 UTC
Tuuli 6 kn pohjoisesta/koillisesta
Lämpötila 24°C
Kosteus 65%
Ilmanpaine 1020 hPa
Näkyvyys 10 km tai enemmän
Muutamia pilviä 2000 ft:n korkeudessa

METAR: FQVL 221500Z 03006KT 9999 FEW020 24/17 Q1020 NOSIG

Aika: 22:03 (20:03 UTC)

Sääennuste

Tämä raportti tehtiin 4 tuntia ja 3 minuuttia sitten, kello 16.00 UTC
Ennuste voimassa 22. päivästä klo 18 UTC - 23. päivään klo 18 UTC
Tuuli 10 kn idästä/koillisesta
Näkyvyys 10 km tai enemmän
Muutamia pilviä 2000 ft:n korkeudessa

TAF: FQVL 221600Z 2218/2318 06010KT 9999 FEW020 TX26/2313Z TN17/2302Z

Säähavainnot ja -ennusteet yli 4000 lentoasemalta (METAR- ja TAF-raportit).

Käytössä olevat sääasemat on merkitty karttaan keltaisilla ja punaisilla pisteillä.

Aseta hiiri pisteen päälle nähdäksesi sääaseman nimen.

Klikkaa sitten nähdäksesi säähavainnot ja -ennusteet.

Kartan vaihtaminen: klikkaa mustalla rastilla varustettuja vihreitä pisteitä, niin voit zoomata sisään; viivalla varustettua vihreää pistettä, niin voit zoomata ulos tai vihreitä nuolia, niin pääset viereisille kartoille.


METAR-TAF: